Lotheni — ZR8530 — position and weather

sailwx.info

Track history (hours):
 
Tides and Currents Weather Stations Pressure Air Temp Water Temp Dewpoint Dewpoint Depression Visibility Wind Speed Wind Dir Waves Ship Positions

Lotheni

Last reported at 2017-Oct-17 19:01 UTC. Time now 2017-Oct-17 19:10 UTC.
Position S 29°52' E 031°03'.

Type: Tug. MMSI: 601135800.

Date/timePositionNaut miles runAvg speedWind from/ knotsBaromVisibWave heightAir tempDewpointWater temp
2017-Oct-17 19:01S 29°52' E 031°03'1 1.1
2017-Oct-17 18:31S 29°53' E 031°03'2 3.3
2017-Oct-17 17:53S 29°53' E 031°00'0 0.9
2017-Oct-17 17:27S 29°53' E 031°00'2 3.3
2017-Oct-17 16:59S 29°52' E 031°02'0 0.0
2017-Oct-17 16:23S 29°52' E 031°02'0 0.0
2017-Oct-17 15:59S 29°52' E 031°02'0 0.0
2017-Oct-17 15:17S 29°52' E 031°02'0 0.0
2017-Oct-17 14:59S 29°52' E 031°02'1 2.0
2017-Oct-17 14:30S 29°53' E 031°02'0 0.5
2017-Oct-17 13:58S 29°53' E 031°02'0 0.1
2017-Oct-17 13:26S 29°53' E 031°02'0 0.0
2017-Oct-17 12:59S 29°53' E 031°02'0 0.9
2017-Oct-17 12:30S 29°53' E 031°02'0 0.0
2017-Oct-17 12:00S 29°53' E 031°02'1 1.5
2017-Oct-17 11:30S 29°53' E 031°03'1 1.0
2017-Oct-17 10:10S 29°52' E 031°02'0 0.0
2017-Oct-17 09:58S 29°52' E 031°02'0 0.0
2017-Oct-17 09:28S 29°52' E 031°02'0 0.0
2017-Oct-17 08:58S 29°52' E 031°02'0 0.0
2017-Oct-17 08:28S 29°52' E 031°02'0 0.0
2017-Oct-17 07:58S 29°52' E 031°02'0 0.0
2017-Oct-17 07:28S 29°52' E 031°02'2 3.3
2017-Oct-17 06:50S 29°53' E 031°00'0 0.8
2017-Oct-17 06:22S 29°53' E 031°00'1 3.1
2017-Oct-17 05:54S 29°52' E 031°02'1 1.6
2017-Oct-17 05:29S 29°53' E 031°02'1 2.1
2017-Oct-17 05:00S 29°52' E 031°02'0 0.1
2017-Oct-17 04:28S 29°52' E 031°02'0 0.0
2017-Oct-17 03:55S 29°52' E 031°02'0 0.0
2017-Oct-17 03:16S 29°52' E 031°02'0 0.0
2017-Oct-17 02:58S 29°52' E 031°02'0 0.0
2017-Oct-17 02:28S 29°52' E 031°02'0 0.0
2017-Oct-17 01:55S 29°52' E 031°02'0 0.0
2017-Oct-16 23:59S 29°52' E 031°02'0 0.5
2017-Oct-16 23:29S 29°52' E 031°02'0 0.1
2017-Oct-16 22:58S 29°52' E 031°02'1 2.5
2017-Oct-16 22:28S 29°53' E 031°02'0 0.2
2017-Oct-16 21:58S 29°53' E 031°02'2 3.2
2017-Oct-16 21:29S 29°52' E 031°03'0 0.3
2017-Oct-16 21:00S 29°53' E 031°03'1 2.2
2017-Oct-16 20:29S 29°53' E 031°02'0 0.4
2017-Oct-16 19:59S 29°53' E 031°02'0 0.1
2017-Oct-16 19:29S 29°53' E 031°02'1 1.6
2017-Oct-16 19:00S 29°53' E 031°02'0 0.5
2017-Oct-16 18:30S 29°52' E 031°02'0 0.7
2017-Oct-16 18:00S 29°52' E 031°02'0 0.1
2017-Oct-16 15:47S 29°52' E 031°02'0 0.0
2017-Oct-16 14:50S 29°52' E 031°02'0 0.0
2017-Oct-16 13:56S 29°52' E 031°02'0 0.0
2017-Oct-16 13:20S 29°52' E 031°02'1 1.5
2017-Oct-16 12:59S 29°52' E 031°02'0 0.4
2017-Oct-16 12:27S 29°52' E 031°02'0 0.9
2017-Oct-16 11:59S 29°53' E 031°02'0 0.9
2017-Oct-16 11:30S 29°53' E 031°02'0 0.2
2017-Oct-16 11:00S 29°53' E 031°02'0 0.3
2017-Oct-16 10:29S 29°53' E 031°01'1 1.1
2017-Oct-16 10:00S 29°53' E 031°02'1 2.6
2017-Oct-16 09:30S 29°53' E 031°03'1 2.8
2017-Oct-16 09:00S 29°53' E 031°02'0 0.6
2017-Oct-16 08:28S 29°53' E 031°01'0 0.6
2017-Oct-16 07:58S 29°53' E 031°01'0 0.6
2017-Oct-16 07:28S 29°53' E 031°02'1 1.6
2017-Oct-16 07:00S 29°52' E 031°02'0 0.1
2017-Oct-16 06:28S 29°52' E 031°02'1 0.9
2017-Oct-16 05:32S 29°52' E 031°02'0 0.0
2017-Oct-16 05:20S 29°52' E 031°02'0 0.0
2017-Oct-16 04:44S 29°52' E 031°02'0 0.0
2017-Oct-16 04:26S 29°52' E 031°02'0 0.0
2017-Oct-16 03:59S 29°52' E 031°02'0 0.0
2017-Oct-16 03:26S 29°52' E 031°02'0 0.0
2017-Oct-16 02:59S 29°52' E 031°02'0 0.0
2017-Oct-16 02:29S 29°52' E 031°02'0 0.0
2017-Oct-16 01:53S 29°52' E 031°02'0 0.0
2017-Oct-15 22:27S 29°52' E 031°02'0 0.4
2017-Oct-15 21:59S 29°52' E 031°02'1 2.6
2017-Oct-15 21:28S 29°53' E 031°03'1 2.3
2017-Oct-15 20:49S 29°52' E 031°02'0 0.0
2017-Oct-15 20:19S 29°52' E 031°02'0 0.0
2017-Oct-15 19:52S 29°52' E 031°02'1 2.4
2017-Oct-15 19:29S 29°53' E 031°02'0 1.0
2017-Oct-15 19:00S 29°53' E 031°03'0 0.7
2017-Oct-15 18:29S 29°52' E 031°03'0 0.0
2017-Oct-15 17:59S 29°52' E 031°03'1 1.5
2017-Oct-15 17:31S 29°53' E 031°02'0 0.3
2017-Oct-15 17:00S 29°53' E 031°02'1 1.8
2017-Oct-15 16:30S 29°52' E 031°02'0 0.0
2017-Oct-15 15:57S 29°52' E 031°02'0 0.0
2017-Oct-15 15:24S 29°52' E 031°02'0 0.0
2017-Oct-15 15:00S 29°52' E 031°02'0 0.4
2017-Oct-15 14:00S 29°52' E 031°02'0 0.9
2017-Oct-15 13:29S 29°53' E 031°02'0 0.4
2017-Oct-15 12:59S 29°53' E 031°02'0 0.4
2017-Oct-15 12:28S 29°53' E 031°02'0 0.8
2017-Oct-15 11:58S 29°52' E 031°02'0 0.1
2017-Oct-15 08:21S 29°53' E 031°02'0 0.8
2017-Oct-15 07:59S 29°52' E 031°02'0 0.6
2017-Oct-15 07:28S 29°52' E 031°03'1 2.4
2017-Oct-15 06:57S 29°53' E 031°02'0 0.0
2017-Oct-15 06:30S 29°53' E 031°02'1 2.0
2017-Oct-15 05:53S 29°53' E 031°03'1 1.5
2017-Oct-15 05:30S 29°53' E 031°02'1 1.8
2017-Oct-15 05:00S 29°52' E 031°02'0 0.0
2017-Oct-15 04:27S 29°52' E 031°02'0 0.0
2017-Oct-15 04:00S 29°52' E 031°02'0 0.0
2017-Oct-15 02:48S 29°52' E 031°02'0 0.0
2017-Oct-15 02:24S 29°52' E 031°02'0 0.0
2017-Oct-15 01:51S 29°52' E 031°02'0 1.0
2017-Oct-15 01:30S 29°52' E 031°02'1 1.4
2017-Oct-15 01:00S 29°52' E 031°03'1 1.9
2017-Oct-15 00:28S 29°52' E 031°02'0 0.0
2017-Oct-14 23:58S 29°52' E 031°02'0 0.0
2017-Oct-14 23:28S 29°52' E 031°02'0 0.0
2017-Oct-14 22:55S 29°52' E 031°02'0 0.0
2017-Oct-14 22:19S 29°52' E 031°02'0 0.0
2017-Oct-14 21:58S 29°52' E 031°02'0 0.3
2017-Oct-14 21:30S 29°52' E 031°02'0 0.3
2017-Oct-14 21:00S 29°52' E 031°02'1 1.4
2017-Oct-14 20:30S 29°52' E 031°01'1 1.4
2017-Oct-14 19:59S 29°52' E 031°01'1 2.6
2017-Oct-14 19:29S 29°52' E 031°02'0 0.0
2017-Oct-14 18:56S 29°52' E 031°02'0 0.0
2017-Oct-14 18:29S 29°52' E 031°02'0 0.0
2017-Oct-14 17:50S 29°52' E 031°02'1 4.2
2017-Oct-14 17:30S 29°53' E 031°03'0 0.5
2017-Oct-14 17:00S 29°53' E 031°02'1 2.8
2017-Oct-14 16:29S 29°52' E 031°02'0 0.0
2017-Oct-14 15:59S 29°52' E 031°02'0 0.0
2017-Oct-14 15:29S 29°52' E 031°02'0 0.0
2017-Oct-14 14:59S 29°52' E 031°02'0 0.0
2017-Oct-14 14:29S 29°52' E 031°02'0 0.0
2017-Oct-14 13:59S 29°52' E 031°02'1 2.1
2017-Oct-14 13:31S 29°53' E 031°03'1 1.0
2017-Oct-14 13:00S 29°52' E 031°02'1 1.2
2017-Oct-14 12:30S 29°52' E 031°02'0 0.0
2017-Oct-14 12:00S 29°52' E 031°02'0 0.0
2017-Oct-14 11:30S 29°52' E 031°02'0 0.0
2017-Oct-14 10:56S 29°52' E 031°02'1 2.8
2017-Oct-14 10:30S 29°53' E 031°01'0 0.4
2017-Oct-14 10:00S 29°53' E 031°01'2 2.9
2017-Oct-14 09:29S 29°52' E 031°03'0 0.2
2017-Oct-14 08:18S 29°53' E 031°03'0 0.4
2017-Oct-14 07:58S 29°52' E 031°03'0 0.1
2017-Oct-14 07:30S 29°52' E 031°03'0 0.8
2017-Oct-14 06:58S 29°53' E 031°03'1 2.3
2017-Oct-14 06:30S 29°52' E 031°02'1 0.8
2017-Oct-14 05:45S 29°52' E 031°02'0 0.0
2017-Oct-14 05:30S 29°52' E 031°02'0 0.0
2017-Oct-14 04:57S 29°52' E 031°02'0 0.0
2017-Oct-14 04:27S 29°52' E 031°02'0 0.0
2017-Oct-14 03:57S 29°52' E 031°02'0 0.0
2017-Oct-14 03:30S 29°52' E 031°02'0 0.0
2017-Oct-14 02:57S 29°52' E 031°02'0 0.3
2017-Oct-14 02:26S 29°52' E 031°02'1 1.5
2017-Oct-14 02:00S 29°53' E 031°02'1 1.7
2017-Oct-14 01:30S 29°53' E 031°03'0 0.8
2017-Oct-14 01:00S 29°52' E 031°03'1 1.5
2017-Oct-14 00:30S 29°52' E 031°02'0 0.9
2017-Oct-14 00:00S 29°52' E 031°02'0 0.3
2017-Oct-13 23:25S 29°52' E 031°02'0 0.0
2017-Oct-13 22:55S 29°52' E 031°02'0 0.0
2017-Oct-13 22:28S 29°52' E 031°02'0 0.0
2017-Oct-13 21:55S 29°52' E 031°02'0 0.0
2017-Oct-13 21:28S 29°52' E 031°02'1 2.1
2017-Oct-13 20:59S 29°52' E 031°03'0 0.7
2017-Oct-13 20:30S 29°53' E 031°03'0 0.7
2017-Oct-13 19:58S 29°52' E 031°03'1 1.4
2017-Oct-13 19:29S 29°53' E 031°02'0 0.2
2017-Oct-13 18:58S 29°53' E 031°02'1 1.3
2017-Oct-13 18:29S 29°52' E 031°03'0 0.0
2017-Oct-13 17:59S 29°52' E 031°03'0 0.0
2017-Oct-13 17:29S 29°52' E 031°03'1 1.0
2017-Oct-13 16:59S 29°52' E 031°02'1 1.2
2017-Oct-13 16:30S 29°52' E 031°02'0 0.0
2017-Oct-13 15:54S 29°52' E 031°02'0 0.0
2017-Oct-13 15:30S 29°52' E 031°02'0 0.0
2017-Oct-13 15:00S 29°52' E 031°02'0 0.0
2017-Oct-13 14:30S 29°52' E 031°02'0 0.0
2017-Oct-13 13:54S 29°52' E 031°02'0 0.0
2017-Oct-13 13:24S 29°52' E 031°02'0 0.0
2017-Oct-13 12:54S 29°52' E 031°02'0 0.0
2017-Oct-13 12:30S 29°52' E 031°02'0 0.0
2017-Oct-13 12:00S 29°52' E 031°02'0 0.5
2017-Oct-13 11:30S 29°52' E 031°02'1 2.4
2017-Oct-13 11:00S 29°53' E 031°02'0 0.6
2017-Oct-13 10:30S 29°53' E 031°03'1 1.8
2017-Oct-13 10:00S 29°52' E 031°03'3 5.1
2017-Oct-13 09:30S 29°53' E 031°00'0 0.6
2017-Oct-13 08:48S 29°53' E 031°00'1 3.2
2017-Oct-13 08:28S 29°52' E 031°01'1 1.5
2017-Oct-13 08:00S 29°52' E 031°02'0 0.9
2017-Oct-13 07:29S 29°52' E 031°02'0 0.9
2017-Oct-13 06:58S 29°52' E 031°02'1 1.7
2017-Oct-13 06:30S 29°53' E 031°02'0 0.4
2017-Oct-13 06:00S 29°53' E 031°02'1 1.3
2017-Oct-13 05:29S 29°52' E 031°02'0 0.6
2017-Oct-13 04:59S 29°52' E 031°02'0 0.3
2017-Oct-13 03:41S 29°52' E 031°02'0 0.0
2017-Oct-13 03:29S 29°52' E 031°02'0 0.0
2017-Oct-13 02:59S 29°52' E 031°02'1 2.3
2017-Oct-13 02:26S 29°52' E 031°01'0 0.7
2017-Oct-13 01:59S 29°53' E 031°00'0 0.0
2017-Oct-13 01:23S 29°53' E 031°00'1 3.3
2017-Oct-13 01:00S 29°52' E 031°02'1 1.0
2017-Oct-13 00:29S 29°52' E 031°02'1 1.9
2017-Oct-12 23:53S 29°52' E 031°01'1 2.4
2017-Oct-12 23:30S 29°52' E 031°02'0 0.7
2017-Oct-12 22:56S 29°52' E 031°02'0 0.0
2017-Oct-12 22:29S 29°52' E 031°02'0 0.0
2017-Oct-12 21:56S 29°52' E 031°02'0 0.2
2017-Oct-12 21:30S 29°52' E 031°02'1 1.5
2017-Oct-12 20:50S 29°52' E 031°01'1 2.1
2017-Oct-12 20:30S 29°52' E 031°02'1 2.1
2017-Oct-12 20:00S 29°53' E 031°02'0 0.0
2017-Oct-12 19:30S 29°53' E 031°02'1 2.4
2017-Oct-12 19:00S 29°53' E 031°03'1 1.4
2017-Oct-12 18:03S 29°52' E 031°02'0 0.0
2017-Oct-12 17:57S 29°52' E 031°02'0 0.0
2017-Oct-12 17:03S 29°52' E 031°02'0 0.0
2017-Oct-12 16:57S 29°52' E 031°02'0 0.0
2017-Oct-12 16:27S 29°52' E 031°02'0 0.0
2017-Oct-12 15:45S 29°52' E 031°02'0 0.0
2017-Oct-12 15:09S 29°52' E 031°02'0 0.0
2017-Oct-12 14:45S 29°52' E 031°02'0 0.0
2017-Oct-12 14:27S 29°52' E 031°02'0 0.0
2017-Oct-12 13:57S 29°52' E 031°02'1 2.7
2017-Oct-12 13:31S 29°53' E 031°01'1 1.4
2017-Oct-12 13:00S 29°53' E 031°02'0 0.4
2017-Oct-12 12:29S 29°53' E 031°02'1 1.4
2017-Oct-12 11:50S 29°52' E 031°02'0 0.0
2017-Oct-12 11:26S 29°52' E 031°02'0 0.0
2017-Oct-12 10:59S 29°52' E 031°02'0 0.0
2017-Oct-12 10:26S 29°52' E 031°02'0 0.0
2017-Oct-12 09:59S 29°52' E 031°02'0 0.1
2017-Oct-12 09:30S 29°52' E 031°02'0 0.0
2017-Oct-12 09:00S 29°52' E 031°02'0 0.0
2017-Oct-12 08:27S 29°52' E 031°02'0 0.0
2017-Oct-12 08:00S 29°52' E 031°02'0 0.0
2017-Oct-12 07:27S 29°52' E 031°02'0 0.0
2017-Oct-12 07:00S 29°52' E 031°02'0 0.1
2017-Oct-12 06:28S 29°52' E 031°02'0 0.1
2017-Oct-12 05:43S 29°52' E 031°02'0 0.2
2017-Oct-12 05:30S 29°52' E 031°02'0 0.0
2017-Oct-12 05:00S 29°52' E 031°02'0 0.0
2017-Oct-12 04:30S 29°52' E 031°02'0 0.0
2017-Oct-12 04:00S 29°52' E 031°02'0 0.0
2017-Oct-12 03:30S 29°52' E 031°02'0 0.0
2017-Oct-12 03:00S 29°52' E 031°02'0 0.0
2017-Oct-12 02:24S 29°52' E 031°02'0 0.0
2017-Oct-12 01:51S 29°52' E 031°02'0 0.0
2017-Oct-12 01:30S 29°52' E 031°02'0 0.0
2017-Oct-12 01:00S 29°52' E 031°02'0 0.0
2017-Oct-12 00:30S 29°52' E 031°02'0 0.7
2017-Oct-12 00:00S 29°52' E 031°02'0 0.6
2017-Oct-11 23:27S 29°52' E 031°02'0 0.0
2017-Oct-11 22:48S 29°52' E 031°02'0 0.0
2017-Oct-11 22:27S 29°52' E 031°02'0 0.0
2017-Oct-11 22:00S 29°52' E 031°02'0 0.6
2017-Oct-11 21:30S 29°52' E 031°02'0 0.6
2017-Oct-11 20:59S 29°52' E 031°02'0 0.2
2017-Oct-11 20:28S 29°52' E 031°02'0 0.3
2017-Oct-11 19:57S 29°52' E 031°02'1 2.1
2017-Oct-11 19:29S 29°53' E 031°01'0 0.2
2017-Oct-11 18:58S 29°53' E 031°01'0 0.9
2017-Oct-11 18:30S 29°53' E 031°02'1 1.4
2017-Oct-11 17:59S 29°52' E 031°02'0 0.0
2017-Oct-10 23:59S 29°52' E 031°02'0 0.0
2017-Oct-10 23:26S 29°52' E 031°02'0 0.0
2017-Oct-10 22:56S 29°52' E 031°02'0 0.0
2017-Oct-10 22:26S 29°52' E 031°02'0 0.0
2017-Oct-10 21:59S 29°52' E 031°02'0 0.0
2017-Oct-10 21:29S 29°52' E 031°02'0 0.0
2017-Oct-10 20:59S 29°52' E 031°02'0 0.0
2017-Oct-10 20:26S 29°52' E 031°02'0 0.0
2017-Oct-10 19:56S 29°52' E 031°02'0 0.2
2017-Oct-10 19:30S 29°52' E 031°02'0 0.2
2017-Oct-10 19:00S 29°52' E 031°02'0 0.0
2017-Oct-10 18:30S 29°52' E 031°02'1 1.3
2017-Oct-10 18:00S 29°52' E 031°02'0 0.2
2017-Oct-10 17:25S 29°52' E 031°02'0 0.8
2017-Oct-10 17:00S 29°53' E 031°02'1 1.2
2017-Oct-10 16:30S 29°53' E 031°03'0 0.0
2017-Oct-10 16:00S 29°53' E 031°03'0 0.0
2017-Oct-10 15:27S 29°53' E 031°03'0 0.3
2017-Oct-10 14:00S 29°52' E 031°03'0 0.1
2017-Oct-10 13:28S 29°52' E 031°03'0 0.0
2017-Oct-10 12:55S 29°52' E 031°03'0 0.1
2017-Oct-10 12:28S 29°52' E 031°03'0 0.0
2017-Oct-10 11:58S 29°52' E 031°03'0 0.1
2017-Oct-10 09:10S 29°52' E 031°03'0 1.1
2017-Oct-10 09:00S 29°53' E 031°03'1 1.1
2017-Oct-10 08:30S 29°53' E 031°03'1 1.9
2017-Oct-10 07:59S 29°52' E 031°02'0 0.0
2017-Oct-10 07:26S 29°52' E 031°02'1 1.2
2017-Oct-10 07:00S 29°52' E 031°02'0 0.1
2017-Oct-10 06:30S 29°52' E 031°02'0 0.9
2017-Oct-10 06:00S 29°53' E 031°02'1 2.6
2017-Oct-10 05:30S 29°53' E 031°03'1 2.8
2017-Oct-10 04:59S 29°52' E 031°02'0 0.0
2017-Oct-10 04:29S 29°52' E 031°02'0 0.0
2017-Oct-10 03:56S 29°52' E 031°02'0 0.0
2017-Oct-10 03:29S 29°52' E 031°02'0 0.0
2017-Oct-10 03:00S 29°52' E 031°02'0 0.0
2017-Oct-10 02:26S 29°52' E 031°02'0 0.0
2017-Oct-10 01:57S 29°52' E 031°02'0 0.0
2017-Oct-10 01:26S 29°52' E 031°02'0 0.0
2017-Oct-10 00:57S 29°52' E 031°02'0 0.0
2017-Oct-10 00:27S 29°52' E 031°02'0 0.0
2017-Oct-09 23:57S 29°52' E 031°02'1 2.2
2017-Oct-09 23:26S 29°53' E 031°02'0 1.0
2017-Oct-09 23:00S 29°52' E 031°02'1 1.3
2017-Oct-09 22:28S 29°52' E 031°02'0 0.0
2017-Oct-09 21:52S 29°52' E 031°02'0 0.0
2017-Oct-09 21:28S 29°52' E 031°02'0 0.0
2017-Oct-09 20:58S 29°52' E 031°02'1 1.7
2017-Oct-09 20:29S 29°53' E 031°02'0 0.0
2017-Oct-09 19:59S 29°53' E 031°02'1 1.6
2017-Oct-09 19:30S 29°53' E 031°03'0 1.0
2017-Oct-09 18:59S 29°52' E 031°02'0 0.3
2017-Oct-09 18:28S 29°52' E 031°03'1 1.9
2017-Oct-09 18:00S 29°52' E 031°03'1 2.8
2017-Oct-09 17:28S 29°52' E 031°02'0 0.0
2017-Oct-09 16:58S 29°52' E 031°02'0 0.0
2017-Oct-09 16:28S 29°52' E 031°02'0 0.0
2017-Oct-09 15:52S 29°52' E 031°02'0 0.0
2017-Oct-09 15:28S 29°52' E 031°02'0 0.0
2017-Oct-09 14:58S 29°52' E 031°02'0 0.0
2017-Oct-09 14:25S 29°52' E 031°02'0 0.0
2017-Oct-09 13:46S 29°52' E 031°02'0 1.5
2017-Oct-09 13:28S 29°52' E 031°02'0 0.6
2017-Oct-09 13:00S 29°52' E 031°02'1 1.2
2017-Oct-09 12:28S 29°52' E 031°02'0 0.0
2017-Oct-09 11:58S 29°52' E 031°02'0 0.0
2017-Oct-09 11:28S 29°52' E 031°02'0 0.0
2017-Oct-09 10:58S 29°52' E 031°02'0 0.0
2017-Oct-09 10:28S 29°52' E 031°02'0 0.0
2017-Oct-09 09:58S 29°52' E 031°02'0 0.0
2017-Oct-09 09:16S 29°52' E 031°02'0 0.0
2017-Oct-09 08:58S 29°52' E 031°02'1 1.9
2017-Oct-09 08:30S 29°53' E 031°02'0 0.4
2017-Oct-09 08:00S 29°52' E 031°02'0 0.6
2017-Oct-09 07:30S 29°52' E 031°03'1 2.6
2017-Oct-09 07:00S 29°53' E 031°01'0 0.3
2017-Oct-09 06:30S 29°53' E 031°01'2 3.5
2017-Oct-09 06:00S 29°52' E 031°03'1 2.1
2017-Oct-09 05:30S 29°53' E 031°03'1 1.4
2017-Oct-09 05:00S 29°53' E 031°02'2 3.2
2017-Oct-09 04:30S 29°52' E 031°02'0 0.0
2017-Oct-09 04:00S 29°52' E 031°02'0 0.0
2017-Oct-09 03:30S 29°52' E 031°02'0 0.0
2017-Oct-09 03:00S 29°52' E 031°02'0 0.0
2017-Oct-09 02:30S 29°52' E 031°02'0 0.0
2017-Oct-09 02:00S 29°52' E 031°02'1 2.4
2017-Oct-09 01:30S 29°53' E 031°03'1 2.2
2017-Oct-09 01:01S 29°53' E 031°01'0 0.6
2017-Oct-09 00:30S 29°53' E 031°02'1 1.7
2017-Oct-08 23:59S 29°52' E 031°02'0 0.0
2017-Oct-08 23:28S 29°52' E 031°02'1 1.8
2017-Oct-08 22:56S 29°53' E 031°02'1 2.2
2017-Oct-08 22:29S 29°52' E 031°02'0 0.0
2017-Oct-08 21:59S 29°52' E 031°02'0 0.0
2017-Oct-08 21:26S 29°52' E 031°02'0 0.0
2017-Oct-08 20:59S 29°52' E 031°02'1 2.9
2017-Oct-08 20:29S 29°53' E 031°03'0 0.6
2017-Oct-08 20:00S 29°52' E 031°03'1 2.8
2017-Oct-08 19:30S 29°52' E 031°02'0 0.4
2017-Oct-08 19:00S 29°53' E 031°01'1 2.1
2017-Oct-08 18:28S 29°52' E 031°03'0 0.0
2017-Oct-08 18:00S 29°52' E 031°03'1 1.8
2017-Oct-08 17:30S 29°52' E 031°02'1 1.1
2017-Oct-08 16:59S 29°53' E 031°01'1 2.2
2017-Oct-08 16:29S 29°52' E 031°02'0 0.0
2017-Oct-08 15:59S 29°52' E 031°02'0 0.0
2017-Oct-08 15:29S 29°52' E 031°02'0 0.0
2017-Oct-08 14:59S 29°52' E 031°02'0 0.0
2017-Oct-08 14:29S 29°52' E 031°02'1 2.9
2017-Oct-08 13:59S 29°53' E 031°03'0 1.0
2017-Oct-08 13:30S 29°53' E 031°02'1 1.7
2017-Oct-08 12:57S 29°52' E 031°02'0 0.0
2017-Oct-08 12:27S 29°52' E 031°02'0 0.0
2017-Oct-08 11:57S 29°52' E 031°02'0 0.0
2017-Oct-08 11:21S 29°52' E 031°02'0 0.0
2017-Oct-08 10:57S 29°52' E 031°02'0 0.0
2017-Oct-08 10:27S 29°52' E 031°02'0 0.0
2017-Oct-08 09:57S 29°52' E 031°02'0 0.0
2017-Oct-08 09:27S 29°52' E 031°02'0 0.0
2017-Oct-08 08:57S 29°52' E 031°02'0 0.0
2017-Oct-08 08:30S 29°52' E 031°02'0 0.0
2017-Oct-08 08:00S 29°52' E 031°02'0 0.0
2017-Oct-08 07:27S 29°52' E 031°02'0 0.0
2017-Oct-08 06:57S 29°52' E 031°02'0 0.0
2017-Oct-08 06:30S 29°52' E 031°02'1 2.3
2017-Oct-08 05:58S 29°53' E 031°01'1 1.8
2017-Oct-08 05:30S 29°52' E 031°02'1 1.2
2017-Oct-08 04:57S 29°52' E 031°02'0 0.0
2017-Oct-08 04:30S 29°52' E 031°02'0 0.0
2017-Oct-08 04:00S 29°52' E 031°02'0 0.7
2017-Oct-08 03:30S 29°52' E 031°02'1 1.8
2017-Oct-08 02:59S 29°53' E 031°01'0 0.0
2017-Oct-08 02:29S 29°53' E 031°01'1 2.5
2017-Oct-08 02:00S 29°52' E 031°02'0 0.0
2017-Oct-08 01:30S 29°52' E 031°02'0 0.0
2017-Oct-08 00:57S 29°52' E 031°02'1 2.9
2017-Oct-08 00:30S 29°53' E 031°03'0 0.5
2017-Oct-08 00:00S 29°53' E 031°03'1 2.8
2017-Oct-07 23:30S 29°52' E 031°02'0 0.0
2017-Oct-07 23:00S 29°52' E 031°02'0 0.0
2017-Oct-07 22:24S 29°52' E 031°02'0 0.0
2017-Oct-07 22:00S 29°52' E 031°02'0 0.0
2017-Oct-07 21:27S 29°52' E 031°02'0 0.0
2017-Oct-07 21:00S 29°52' E 031°02'0 0.0
2017-Oct-07 20:30S 29°52' E 031°02'0 0.0
2017-Oct-07 20:00S 29°52' E 031°02'0 0.0
2017-Oct-07 19:30S 29°52' E 031°02'  
Track history (hours):
 
Tides and Currents Weather Stations Pressure Air Temp Water Temp Dewpoint Dewpoint Depression Visibility Wind Speed Wind Dir Waves Ship Positions

Lotheni

Last reported at 2017-Oct-17 19:01 UTC. Time now 2017-Oct-17 19:10 UTC.
Position S 29°52' E 031°03'.

Type: Tug. MMSI: 601135800.

Date/timePositionNaut miles runAvg speedWind from/ knotsBaromVisibWave heightAir tempDewpointWater temp
2017-Oct-17 19:01S 29°52' E 031°03'1 1.1
2017-Oct-17 18:31S 29°53' E 031°03'2 3.3
2017-Oct-17 17:53S 29°53' E 031°00'0 0.9
2017-Oct-17 17:27S 29°53' E 031°00'2 3.3
2017-Oct-17 16:59S 29°52' E 031°02'0 0.0
2017-Oct-17 16:23S 29°52' E 031°02'0 0.0
2017-Oct-17 15:59S 29°52' E 031°02'0 0.0
2017-Oct-17 15:17S 29°52' E 031°02'0 0.0
2017-Oct-17 14:59S 29°52' E 031°02'1 2.0
2017-Oct-17 14:30S 29°53' E 031°02'0 0.5
2017-Oct-17 13:58S 29°53' E 031°02'0 0.1
2017-Oct-17 13:26S 29°53' E 031°02'0 0.0
2017-Oct-17 12:59S 29°53' E 031°02'0 0.9
2017-Oct-17 12:30S 29°53' E 031°02'0 0.0
2017-Oct-17 12:00S 29°53' E 031°02'1 1.5
2017-Oct-17 11:30S 29°53' E 031°03'1 1.0
2017-Oct-17 10:10S 29°52' E 031°02'0 0.0
2017-Oct-17 09:58S 29°52' E 031°02'0 0.0
2017-Oct-17 09:28S 29°52' E 031°02'0 0.0
2017-Oct-17 08:58S 29°52' E 031°02'0 0.0
2017-Oct-17 08:28S 29°52' E 031°02'0 0.0
2017-Oct-17 07:58S 29°52' E 031°02'0 0.0
2017-Oct-17 07:28S 29°52' E 031°02'2 3.3
2017-Oct-17 06:50S 29°53' E 031°00'0 0.8
2017-Oct-17 06:22S 29°53' E 031°00'1 3.1
2017-Oct-17 05:54S 29°52' E 031°02'1 1.6
2017-Oct-17 05:29S 29°53' E 031°02'1 2.1
2017-Oct-17 05:00S 29°52' E 031°02'0 0.1
2017-Oct-17 04:28S 29°52' E 031°02'0 0.0
2017-Oct-17 03:55S 29°52' E 031°02'0 0.0
2017-Oct-17 03:16S 29°52' E 031°02'0 0.0
2017-Oct-17 02:58S 29°52' E 031°02'0 0.0
2017-Oct-17 02:28S 29°52' E 031°02'0 0.0
2017-Oct-17 01:55S 29°52' E 031°02'0 0.0
2017-Oct-16 23:59S 29°52' E 031°02'0 0.5
2017-Oct-16 23:29S 29°52' E 031°02'0 0.1
2017-Oct-16 22:58S 29°52' E 031°02'1 2.5
2017-Oct-16 22:28S 29°53' E 031°02'0 0.2
2017-Oct-16 21:58S 29°53' E 031°02'2 3.2
2017-Oct-16 21:29S 29°52' E 031°03'0 0.3
2017-Oct-16 21:00S 29°53' E 031°03'1 2.2
2017-Oct-16 20:29S 29°53' E 031°02'0 0.4
2017-Oct-16 19:59S 29°53' E 031°02'0 0.1
2017-Oct-16 19:29S 29°53' E 031°02'1 1.6
2017-Oct-16 19:00S 29°53' E 031°02'0 0.5
2017-Oct-16 18:30S 29°52' E 031°02'0 0.7
2017-Oct-16 18:00S 29°52' E 031°02'0 0.1
2017-Oct-16 15:47S 29°52' E 031°02'0 0.0
2017-Oct-16 14:50S 29°52' E 031°02'0 0.0
2017-Oct-16 13:56S 29°52' E 031°02'0 0.0
2017-Oct-16 13:20S 29°52' E 031°02'1 1.5
2017-Oct-16 12:59S 29°52' E 031°02'0 0.4
2017-Oct-16 12:27S 29°52' E 031°02'0 0.9
2017-Oct-16 11:59S 29°53' E 031°02'0 0.9
2017-Oct-16 11:30S 29°53' E 031°02'0 0.2
2017-Oct-16 11:00S 29°53' E 031°02'0 0.3
2017-Oct-16 10:29S 29°53' E 031°01'1 1.1
2017-Oct-16 10:00S 29°53' E 031°02'1 2.6
2017-Oct-16 09:30S 29°53' E 031°03'1 2.8
2017-Oct-16 09:00S 29°53' E 031°02'0 0.6
2017-Oct-16 08:28S 29°53' E 031°01'0 0.6
2017-Oct-16 07:58S 29°53' E 031°01'0 0.6
2017-Oct-16 07:28S 29°53' E 031°02'1 1.6
2017-Oct-16 07:00S 29°52' E 031°02'0 0.1
2017-Oct-16 06:28S 29°52' E 031°02'1 0.9
2017-Oct-16 05:32S 29°52' E 031°02'0 0.0
2017-Oct-16 05:20S 29°52' E 031°02'0 0.0
2017-Oct-16 04:44S 29°52' E 031°02'0 0.0
2017-Oct-16 04:26S 29°52' E 031°02'0 0.0
2017-Oct-16 03:59S 29°52' E 031°02'0 0.0
2017-Oct-16 03:26S 29°52' E 031°02'0 0.0
2017-Oct-16 02:59S 29°52' E 031°02'0 0.0
2017-Oct-16 02:29S 29°52' E 031°02'0 0.0
2017-Oct-16 01:53S 29°52' E 031°02'0 0.0
2017-Oct-15 22:27S 29°52' E 031°02'0 0.4
2017-Oct-15 21:59S 29°52' E 031°02'1 2.6
2017-Oct-15 21:28S 29°53' E 031°03'1 2.3
2017-Oct-15 20:49S 29°52' E 031°02'0 0.0
2017-Oct-15 20:19S 29°52' E 031°02'0 0.0
2017-Oct-15 19:52S 29°52' E 031°02'1 2.4
2017-Oct-15 19:29S 29°53' E 031°02'0 1.0
2017-Oct-15 19:00S 29°53' E 031°03'0 0.7
2017-Oct-15 18:29S 29°52' E 031°03'0 0.0
2017-Oct-15 17:59S 29°52' E 031°03'1 1.5
2017-Oct-15 17:31S 29°53' E 031°02'0 0.3
2017-Oct-15 17:00S 29°53' E 031°02'1 1.8
2017-Oct-15 16:30S 29°52' E 031°02'0 0.0
2017-Oct-15 15:57S 29°52' E 031°02'0 0.0
2017-Oct-15 15:24S 29°52' E 031°02'0 0.0
2017-Oct-15 15:00S 29°52' E 031°02'0 0.4
2017-Oct-15 14:00S 29°52' E 031°02'0 0.9
2017-Oct-15 13:29S 29°53' E 031°02'0 0.4
2017-Oct-15 12:59S 29°53' E 031°02'0 0.4
2017-Oct-15 12:28S 29°53' E 031°02'0 0.8
2017-Oct-15 11:58S 29°52' E 031°02'0 0.1
2017-Oct-15 08:21S 29°53' E 031°02'0 0.8
2017-Oct-15 07:59S 29°52' E 031°02'0 0.6
2017-Oct-15 07:28S 29°52' E 031°03'1 2.4
2017-Oct-15 06:57S 29°53' E 031°02'0 0.0
2017-Oct-15 06:30S 29°53' E 031°02'1 2.0
2017-Oct-15 05:53S 29°53' E 031°03'1 1.5
2017-Oct-15 05:30S 29°53' E 031°02'1 1.8
2017-Oct-15 05:00S 29°52' E 031°02'0 0.0
2017-Oct-15 04:27S 29°52' E 031°02'0 0.0
2017-Oct-15 04:00S 29°52' E 031°02'0 0.0
2017-Oct-15 02:48S 29°52' E 031°02'0 0.0
2017-Oct-15 02:24S 29°52' E 031°02'0 0.0
2017-Oct-15 01:51S 29°52' E 031°02'0 1.0
2017-Oct-15 01:30S 29°52' E 031°02'1 1.4
2017-Oct-15 01:00S 29°52' E 031°03'1 1.9
2017-Oct-15 00:28S 29°52' E 031°02'0 0.0
2017-Oct-14 23:58S 29°52' E 031°02'0 0.0
2017-Oct-14 23:28S 29°52' E 031°02'0 0.0
2017-Oct-14 22:55S 29°52' E 031°02'0 0.0
2017-Oct-14 22:19S 29°52' E 031°02'0 0.0
2017-Oct-14 21:58S 29°52' E 031°02'0 0.3
2017-Oct-14 21:30S 29°52' E 031°02'0 0.3
2017-Oct-14 21:00S 29°52' E 031°02'1 1.4
2017-Oct-14 20:30S 29°52' E 031°01'1 1.4
2017-Oct-14 19:59S 29°52' E 031°01'1 2.6
2017-Oct-14 19:29S 29°52' E 031°02'0 0.0
2017-Oct-14 18:56S 29°52' E 031°02'0 0.0
2017-Oct-14 18:29S 29°52' E 031°02'0 0.0
2017-Oct-14 17:50S 29°52' E 031°02'1 4.2
2017-Oct-14 17:30S 29°53' E 031°03'0 0.5
2017-Oct-14 17:00S 29°53' E 031°02'1 2.8
2017-Oct-14 16:29S 29°52' E 031°02'0 0.0
2017-Oct-14 15:59S 29°52' E 031°02'0 0.0
2017-Oct-14 15:29S 29°52' E 031°02'0 0.0
2017-Oct-14 14:59S 29°52' E 031°02'0 0.0
2017-Oct-14 14:29S 29°52' E 031°02'0 0.0
2017-Oct-14 13:59S 29°52' E 031°02'1 2.1
2017-Oct-14 13:31S 29°53' E 031°03'1 1.0
2017-Oct-14 13:00S 29°52' E 031°02'1 1.2
2017-Oct-14 12:30S 29°52' E 031°02'0 0.0
2017-Oct-14 12:00S 29°52' E 031°02'0 0.0
2017-Oct-14 11:30S 29°52' E 031°02'0 0.0
2017-Oct-14 10:56S 29°52' E 031°02'1 2.8
2017-Oct-14 10:30S 29°53' E 031°01'0 0.4
2017-Oct-14 10:00S 29°53' E 031°01'2 2.9
2017-Oct-14 09:29S 29°52' E 031°03'0 0.2
2017-Oct-14 08:18S 29°53' E 031°03'0 0.4
2017-Oct-14 07:58S 29°52' E 031°03'0 0.1
2017-Oct-14 07:30S 29°52' E 031°03'0 0.8
2017-Oct-14 06:58S 29°53' E 031°03'1 2.3
2017-Oct-14 06:30S 29°52' E 031°02'1 0.8
2017-Oct-14 05:45S 29°52' E 031°02'0 0.0
2017-Oct-14 05:30S 29°52' E 031°02'0 0.0
2017-Oct-14 04:57S 29°52' E 031°02'0 0.0
2017-Oct-14 04:27S 29°52' E 031°02'0 0.0
2017-Oct-14 03:57S 29°52' E 031°02'0 0.0
2017-Oct-14 03:30S 29°52' E 031°02'0 0.0
2017-Oct-14 02:57S 29°52' E 031°02'0 0.3
2017-Oct-14 02:26S 29°52' E 031°02'1 1.5
2017-Oct-14 02:00S 29°53' E 031°02'1 1.7
2017-Oct-14 01:30S 29°53' E 031°03'0 0.8
2017-Oct-14 01:00S 29°52' E 031°03'1 1.5
2017-Oct-14 00:30S 29°52' E 031°02'0 0.9
2017-Oct-14 00:00S 29°52' E 031°02'0 0.3
2017-Oct-13 23:25S 29°52' E 031°02'0 0.0
2017-Oct-13 22:55S 29°52' E 031°02'0 0.0
2017-Oct-13 22:28S 29°52' E 031°02'0 0.0
2017-Oct-13 21:55S 29°52' E 031°02'0 0.0
2017-Oct-13 21:28S 29°52' E 031°02'1 2.1
2017-Oct-13 20:59S 29°52' E 031°03'0 0.7
2017-Oct-13 20:30S 29°53' E 031°03'0 0.7
2017-Oct-13 19:58S 29°52' E 031°03'1 1.4
2017-Oct-13 19:29S 29°53' E 031°02'0 0.2
2017-Oct-13 18:58S 29°53' E 031°02'1 1.3
2017-Oct-13 18:29S 29°52' E 031°03'0 0.0
2017-Oct-13 17:59S 29°52' E 031°03'0 0.0
2017-Oct-13 17:29S 29°52' E 031°03'1 1.0
2017-Oct-13 16:59S 29°52' E 031°02'1 1.2
2017-Oct-13 16:30S 29°52' E 031°02'0 0.0
2017-Oct-13 15:54S 29°52' E 031°02'0 0.0
2017-Oct-13 15:30S 29°52' E 031°02'0 0.0
2017-Oct-13 15:00S 29°52' E 031°02'0 0.0
2017-Oct-13 14:30S 29°52' E 031°02'0 0.0
2017-Oct-13 13:54S 29°52' E 031°02'0 0.0
2017-Oct-13 13:24S 29°52' E 031°02'0 0.0
2017-Oct-13 12:54S 29°52' E 031°02'0 0.0
2017-Oct-13 12:30S 29°52' E 031°02'0 0.0
2017-Oct-13 12:00S 29°52' E 031°02'0 0.5
2017-Oct-13 11:30S 29°52' E 031°02'1 2.4
2017-Oct-13 11:00S 29°53' E 031°02'0 0.6
2017-Oct-13 10:30S 29°53' E 031°03'1 1.8
2017-Oct-13 10:00S 29°52' E 031°03'3 5.1
2017-Oct-13 09:30S 29°53' E 031°00'0 0.6
2017-Oct-13 08:48S 29°53' E 031°00'1 3.2
2017-Oct-13 08:28S 29°52' E 031°01'1 1.5
2017-Oct-13 08:00S 29°52' E 031°02'0 0.9
2017-Oct-13 07:29S 29°52' E 031°02'0 0.9
2017-Oct-13 06:58S 29°52' E 031°02'1 1.7
2017-Oct-13 06:30S 29°53' E 031°02'0 0.4
2017-Oct-13 06:00S 29°53' E 031°02'1 1.3
2017-Oct-13 05:29S 29°52' E 031°02'0 0.6
2017-Oct-13 04:59S 29°52' E 031°02'0 0.3
2017-Oct-13 03:41S 29°52' E 031°02'0 0.0
2017-Oct-13 03:29S 29°52' E 031°02'0 0.0
2017-Oct-13 02:59S 29°52' E 031°02'1 2.3
2017-Oct-13 02:26S 29°52' E 031°01'0 0.7
2017-Oct-13 01:59S 29°53' E 031°00'0 0.0
2017-Oct-13 01:23S 29°53' E 031°00'1 3.3
2017-Oct-13 01:00S 29°52' E 031°02'1 1.0
2017-Oct-13 00:29S 29°52' E 031°02'1 1.9
2017-Oct-12 23:53S 29°52' E 031°01'1 2.4
2017-Oct-12 23:30S 29°52' E 031°02'0 0.7
2017-Oct-12 22:56S 29°52' E 031°02'0 0.0
2017-Oct-12 22:29S 29°52' E 031°02'0 0.0
2017-Oct-12 21:56S 29°52' E 031°02'0 0.2
2017-Oct-12 21:30S 29°52' E 031°02'1 1.5
2017-Oct-12 20:50S 29°52' E 031°01'1 2.1
2017-Oct-12 20:30S 29°52' E 031°02'1 2.1
2017-Oct-12 20:00S 29°53' E 031°02'0 0.0
2017-Oct-12 19:30S 29°53' E 031°02'1 2.4
2017-Oct-12 19:00S 29°53' E 031°03'1 1.4
2017-Oct-12 18:03S 29°52' E 031°02'0 0.0
2017-Oct-12 17:57S 29°52' E 031°02'0 0.0
2017-Oct-12 17:03S 29°52' E 031°02'0 0.0
2017-Oct-12 16:57S 29°52' E 031°02'0 0.0
2017-Oct-12 16:27S 29°52' E 031°02'0 0.0
2017-Oct-12 15:45S 29°52' E 031°02'0 0.0
2017-Oct-12 15:09S 29°52' E 031°02'0 0.0
2017-Oct-12 14:45S 29°52' E 031°02'0 0.0
2017-Oct-12 14:27S 29°52' E 031°02'0 0.0
2017-Oct-12 13:57S 29°52' E 031°02'1 2.7
2017-Oct-12 13:31S 29°53' E 031°01'1 1.4
2017-Oct-12 13:00S 29°53' E 031°02'0 0.4
2017-Oct-12 12:29S 29°53' E 031°02'1 1.4
2017-Oct-12 11:50S 29°52' E 031°02'0 0.0
2017-Oct-12 11:26S 29°52' E 031°02'0 0.0
2017-Oct-12 10:59S 29°52' E 031°02'0 0.0
2017-Oct-12 10:26S 29°52' E 031°02'0 0.0
2017-Oct-12 09:59S 29°52' E 031°02'0 0.1
2017-Oct-12 09:30S 29°52' E 031°02'0 0.0
2017-Oct-12 09:00S 29°52' E 031°02'0 0.0
2017-Oct-12 08:27S 29°52' E 031°02'0 0.0
2017-Oct-12 08:00S 29°52' E 031°02'0 0.0
2017-Oct-12 07:27S 29°52' E 031°02'0 0.0
2017-Oct-12 07:00S 29°52' E 031°02'0 0.1
2017-Oct-12 06:28S 29°52' E 031°02'0 0.1
2017-Oct-12 05:43S 29°52' E 031°02'0 0.2
2017-Oct-12 05:30S 29°52' E 031°02'0 0.0
2017-Oct-12 05:00S 29°52' E 031°02'0 0.0
2017-Oct-12 04:30S 29°52' E 031°02'0 0.0
2017-Oct-12 04:00S 29°52' E 031°02'0 0.0
2017-Oct-12 03:30S 29°52' E 031°02'0 0.0
2017-Oct-12 03:00S 29°52' E 031°02'0 0.0
2017-Oct-12 02:24S 29°52' E 031°02'0 0.0
2017-Oct-12 01:51S 29°52' E 031°02'0 0.0
2017-Oct-12 01:30S 29°52' E 031°02'0 0.0
2017-Oct-12 01:00S 29°52' E 031°02'0 0.0
2017-Oct-12 00:30S 29°52' E 031°02'0 0.7
2017-Oct-12 00:00S 29°52' E 031°02'0 0.6
2017-Oct-11 23:27S 29°52' E 031°02'0 0.0
2017-Oct-11 22:48S 29°52' E 031°02'0 0.0
2017-Oct-11 22:27S 29°52' E 031°02'0 0.0
2017-Oct-11 22:00S 29°52' E 031°02'0 0.6
2017-Oct-11 21:30S 29°52' E 031°02'0 0.6
2017-Oct-11 20:59S 29°52' E 031°02'0 0.2
2017-Oct-11 20:28S 29°52' E 031°02'0 0.3
2017-Oct-11 19:57S 29°52' E 031°02'1 2.1
2017-Oct-11 19:29S 29°53' E 031°01'0 0.2
2017-Oct-11 18:58S 29°53' E 031°01'0 0.9
2017-Oct-11 18:30S 29°53' E 031°02'1 1.4
2017-Oct-11 17:59S 29°52' E 031°02'0 0.0
2017-Oct-10 23:59S 29°52' E 031°02'0 0.0
2017-Oct-10 23:26S 29°52' E 031°02'0 0.0
2017-Oct-10 22:56S 29°52' E 031°02'0 0.0
2017-Oct-10 22:26S 29°52' E 031°02'0 0.0
2017-Oct-10 21:59S 29°52' E 031°02'0 0.0
2017-Oct-10 21:29S 29°52' E 031°02'0 0.0
2017-Oct-10 20:59S 29°52' E 031°02'0 0.0
2017-Oct-10 20:26S 29°52' E 031°02'0 0.0
2017-Oct-10 19:56S 29°52' E 031°02'0 0.2
2017-Oct-10 19:30S 29°52' E 031°02'0 0.2
2017-Oct-10 19:00S 29°52' E 031°02'0 0.0
2017-Oct-10 18:30S 29°52' E 031°02'1 1.3
2017-Oct-10 18:00S 29°52' E 031°02'0 0.2
2017-Oct-10 17:25S 29°52' E 031°02'0 0.8
2017-Oct-10 17:00S 29°53' E 031°02'1 1.2
2017-Oct-10 16:30S 29°53' E 031°03'0 0.0
2017-Oct-10 16:00S 29°53' E 031°03'0 0.0
2017-Oct-10 15:27S 29°53' E 031°03'0 0.3
2017-Oct-10 14:00S 29°52' E 031°03'0 0.1
2017-Oct-10 13:28S 29°52' E 031°03'0 0.0
2017-Oct-10 12:55S 29°52' E 031°03'0 0.1
2017-Oct-10 12:28S 29°52' E 031°03'0 0.0
2017-Oct-10 11:58S 29°52' E 031°03'0 0.1
2017-Oct-10 09:10S 29°52' E 031°03'0 1.1
2017-Oct-10 09:00S 29°53' E 031°03'1 1.1
2017-Oct-10 08:30S 29°53' E 031°03'1 1.9
2017-Oct-10 07:59S 29°52' E 031°02'0 0.0
2017-Oct-10 07:26S 29°52' E 031°02'1 1.2
2017-Oct-10 07:00S 29°52' E 031°02'0 0.1
2017-Oct-10 06:30S 29°52' E 031°02'0 0.9
2017-Oct-10 06:00S 29°53' E 031°02'1 2.6
2017-Oct-10 05:30S 29°53' E 031°03'1 2.8
2017-Oct-10 04:59S 29°52' E 031°02'0 0.0
2017-Oct-10 04:29S 29°52' E 031°02'0 0.0
2017-Oct-10 03:56S 29°52' E 031°02'0 0.0
2017-Oct-10 03:29S 29°52' E 031°02'0 0.0
2017-Oct-10 03:00S 29°52' E 031°02'0 0.0
2017-Oct-10 02:26S 29°52' E 031°02'0 0.0
2017-Oct-10 01:57S 29°52' E 031°02'0 0.0
2017-Oct-10 01:26S 29°52' E 031°02'0 0.0
2017-Oct-10 00:57S 29°52' E 031°02'0 0.0
2017-Oct-10 00:27S 29°52' E 031°02'0 0.0
2017-Oct-09 23:57S 29°52' E 031°02'1 2.2
2017-Oct-09 23:26S 29°53' E 031°02'0 1.0
2017-Oct-09 23:00S 29°52' E 031°02'1 1.3
2017-Oct-09 22:28S 29°52' E 031°02'0 0.0
2017-Oct-09 21:52S 29°52' E 031°02'0 0.0
2017-Oct-09 21:28S 29°52' E 031°02'0 0.0
2017-Oct-09 20:58S 29°52' E 031°02'1 1.7
2017-Oct-09 20:29S 29°53' E 031°02'0 0.0
2017-Oct-09 19:59S 29°53' E 031°02'1 1.6
2017-Oct-09 19:30S 29°53' E 031°03'0 1.0
2017-Oct-09 18:59S 29°52' E 031°02'0 0.3
2017-Oct-09 18:28S 29°52' E 031°03'1 1.9
2017-Oct-09 18:00S 29°52' E 031°03'1 2.8
2017-Oct-09 17:28S 29°52' E 031°02'0 0.0
2017-Oct-09 16:58S 29°52' E 031°02'0 0.0
2017-Oct-09 16:28S 29°52' E 031°02'0 0.0
2017-Oct-09 15:52S 29°52' E 031°02'0 0.0
2017-Oct-09 15:28S 29°52' E 031°02'0 0.0
2017-Oct-09 14:58S 29°52' E 031°02'0 0.0
2017-Oct-09 14:25S 29°52' E 031°02'0 0.0
2017-Oct-09 13:46S 29°52' E 031°02'0 1.5
2017-Oct-09 13:28S 29°52' E 031°02'0 0.6
2017-Oct-09 13:00S 29°52' E 031°02'1 1.2
2017-Oct-09 12:28S 29°52' E 031°02'0 0.0
2017-Oct-09 11:58S 29°52' E 031°02'0 0.0
2017-Oct-09 11:28S 29°52' E 031°02'0 0.0
2017-Oct-09 10:58S 29°52' E 031°02'0 0.0
2017-Oct-09 10:28S 29°52' E 031°02'0 0.0
2017-Oct-09 09:58S 29°52' E 031°02'0 0.0
2017-Oct-09 09:16S 29°52' E 031°02'0 0.0
2017-Oct-09 08:58S 29°52' E 031°02'1 1.9
2017-Oct-09 08:30S 29°53' E 031°02'0 0.4
2017-Oct-09 08:00S 29°52' E 031°02'0 0.6
2017-Oct-09 07:30S 29°52' E 031°03'1 2.6
2017-Oct-09 07:00S 29°53' E 031°01'0 0.3
2017-Oct-09 06:30S 29°53' E 031°01'2 3.5
2017-Oct-09 06:00S 29°52' E 031°03'1 2.1
2017-Oct-09 05:30S 29°53' E 031°03'1 1.4
2017-Oct-09 05:00S 29°53' E 031°02'2 3.2
2017-Oct-09 04:30S 29°52' E 031°02'0 0.0
2017-Oct-09 04:00S 29°52' E 031°02'0 0.0
2017-Oct-09 03:30S 29°52' E 031°02'0 0.0
2017-Oct-09 03:00S 29°52' E 031°02'0 0.0
2017-Oct-09 02:30S 29°52' E 031°02'0 0.0
2017-Oct-09 02:00S 29°52' E 031°02'1 2.4
2017-Oct-09 01:30S 29°53' E 031°03'1 2.2
2017-Oct-09 01:01S 29°53' E 031°01'0 0.6
2017-Oct-09 00:30S 29°53' E 031°02'1 1.7
2017-Oct-08 23:59S 29°52' E 031°02'0 0.0
2017-Oct-08 23:28S 29°52' E 031°02'1 1.8
2017-Oct-08 22:56S 29°53' E 031°02'1 2.2
2017-Oct-08 22:29S 29°52' E 031°02'0 0.0
2017-Oct-08 21:59S 29°52' E 031°02'0 0.0
2017-Oct-08 21:26S 29°52' E 031°02'0 0.0
2017-Oct-08 20:59S 29°52' E 031°02'1 2.9
2017-Oct-08 20:29S 29°53' E 031°03'0 0.6
2017-Oct-08 20:00S 29°52' E 031°03'1 2.8
2017-Oct-08 19:30S 29°52' E 031°02'0 0.4
2017-Oct-08 19:00S 29°53' E 031°01'1 2.1
2017-Oct-08 18:28S 29°52' E 031°03'0 0.0
2017-Oct-08 18:00S 29°52' E 031°03'1 1.8
2017-Oct-08 17:30S 29°52' E 031°02'1 1.1
2017-Oct-08 16:59S 29°53' E 031°01'1 2.2
2017-Oct-08 16:29S 29°52' E 031°02'0 0.0
2017-Oct-08 15:59S 29°52' E 031°02'0 0.0
2017-Oct-08 15:29S 29°52' E 031°02'0 0.0
2017-Oct-08 14:59S 29°52' E 031°02'0 0.0
2017-Oct-08 14:29S 29°52' E 031°02'1 2.9
2017-Oct-08 13:59S 29°53' E 031°03'0 1.0
2017-Oct-08 13:30S 29°53' E 031°02'1 1.7
2017-Oct-08 12:57S 29°52' E 031°02'0 0.0
2017-Oct-08 12:27S 29°52' E 031°02'0 0.0
2017-Oct-08 11:57S 29°52' E 031°02'0 0.0
2017-Oct-08 11:21S 29°52' E 031°02'0 0.0
2017-Oct-08 10:57S 29°52' E 031°02'0 0.0
2017-Oct-08 10:27S 29°52' E 031°02'0 0.0
2017-Oct-08 09:57S 29°52' E 031°02'0 0.0
2017-Oct-08 09:27S 29°52' E 031°02'0 0.0
2017-Oct-08 08:57S 29°52' E 031°02'0 0.0
2017-Oct-08 08:30S 29°52' E 031°02'0 0.0
2017-Oct-08 08:00S 29°52' E 031°02'0 0.0
2017-Oct-08 07:27S 29°52' E 031°02'0 0.0
2017-Oct-08 06:57S 29°52' E 031°02'0 0.0
2017-Oct-08 06:30S 29°52' E 031°02'1 2.3
2017-Oct-08 05:58S 29°53' E 031°01'1 1.8
2017-Oct-08 05:30S 29°52' E 031°02'1 1.2
2017-Oct-08 04:57S 29°52' E 031°02'0 0.0
2017-Oct-08 04:30S 29°52' E 031°02'0 0.0
2017-Oct-08 04:00S 29°52' E 031°02'0 0.7
2017-Oct-08 03:30S 29°52' E 031°02'1 1.8
2017-Oct-08 02:59S 29°53' E 031°01'0 0.0
2017-Oct-08 02:29S 29°53' E 031°01'1 2.5
2017-Oct-08 02:00S 29°52' E 031°02'0 0.0
2017-Oct-08 01:30S 29°52' E 031°02'0 0.0
2017-Oct-08 00:57S 29°52' E 031°02'1 2.9
2017-Oct-08 00:30S 29°53' E 031°03'0 0.5
2017-Oct-08 00:00S 29°53' E 031°03'1 2.8
2017-Oct-07 23:30S 29°52' E 031°02'0 0.0
2017-Oct-07 23:00S 29°52' E 031°02'0 0.0
2017-Oct-07 22:24S 29°52' E 031°02'0 0.0
2017-Oct-07 22:00S 29°52' E 031°02'0 0.0
2017-Oct-07 21:27S 29°52' E 031°02'0 0.0
2017-Oct-07 21:00S 29°52' E 031°02'0 0.0
2017-Oct-07 20:30S 29°52' E 031°02'0 0.0
2017-Oct-07 20:00S 29°52' E 031°02'0 0.0
2017-Oct-07 19:30S 29°52' E 031°02'  

Dump ship's entire track history